Time;durP1;ratioP1;P1;durP2;ratioP2;P2;SDS_P1;SDS_P2;PMS_P1;PMS_P2;Temp;Humidity;BMP_temperature;BMP_pressure;BME280_temperature;BME280_humidity;BME280_pressure;Samples;Min_cycle;Max_cycle;Signal;HPM_P1;HPM_P2
2022/05/06 05:04:04;;;;;;;;;;;12.70;99.90;;;;;;4887756;29;20045;-78
2022/05/06 05:06:31;;;;;;;;;;;12.60;99.90;;;;;;4872525;29;20130;-80
2022/05/06 05:08:59;;;;;;;;;;;12.60;99.90;;;;;;4903756;29;19947;-81
2022/05/06 05:11:49;;;;;;;;;;;12.50;99.90;;;;;;4872686;29;19915;-80
2022/05/06 05:14:28;;;;;;;;;;;12.60;99.90;;;;;;4869483;29;19908;-79
2022/05/06 05:16:56;;;;;;;;;;;12.60;99.90;;;;;;4883898;29;19920;-77
2022/05/06 05:19:22;;;;;;;;;;;12.60;99.90;;;;;;4869457;29;19924;-81
2022/05/06 05:21:53;;;;;;;;;;;12.50;99.90;;;;;;4884176;29;19919;-77
2022/05/06 05:24:19;;;;;;;;;;;12.50;99.90;;;;;;4882437;29;20213;-78
2022/05/06 05:26:45;;;;;;;;;;;12.60;99.90;;;;;;4870189;29;19979;-79
2022/05/06 05:29:26;;;;;;;;;;;12.50;99.90;;;;;;4883932;29;19918;-80
2022/05/06 05:31:53;;;;;;;;;;;12.50;99.90;;;;;;4865909;29;19947;-79
2022/05/06 05:34:22;;;;;;;;;;;12.50;99.90;;;;;;4872292;29;19979;-77
2022/05/06 05:36:49;;;;;;;;;;;12.50;99.90;;;;;;4876269;29;19983;-79
2022/05/06 05:39:15;;;;;;;;;;;12.50;99.90;;;;;;4881156;29;19923;-78
2022/05/06 05:41:41;;;;;;;;;;;12.50;99.90;;;;;;4880896;29;19926;-78
2022/05/06 05:49:37;;;;;;;;;;;12.50;99.90;;;;;;4867424;29;19911;-79
2022/05/06 05:52:04;;;;;;;;;;;12.50;99.90;;;;;;4883895;29;19974;-76
2022/05/06 05:54:30;;;;;;;;;;;12.40;99.90;;;;;;4900768;29;19911;-78
2022/05/06 05:56:58;;;;;;;;;;;12.40;99.90;;;;;;4884209;29;19979;-76
2022/05/06 05:59:25;;;;;;;;;;;12.40;99.90;;;;;;4903797;29;20157;-80
2022/05/06 06:01:52;;;;;;;;;;;12.30;99.90;;;;;;4853703;29;20083;-77
2022/05/06 06:04:18;;;;;;;;;;;12.40;99.90;;;;;;4867055;29;19922;-79
2022/05/06 06:06:46;;;;;;;;;;;12.40;99.90;;;;;;4894890;29;19918;-78
2022/05/06 06:09:14;;;;;;;;;;;12.50;99.90;;;;;;4881582;29;19912;-78
2022/05/06 06:11:41;;;;;;;;;;;12.50;99.90;;;;;;4868944;29;19912;-77
2022/05/06 06:14:11;;;;;;;;;;;12.60;99.90;;;;;;4855693;29;19916;-78
2022/05/06 06:16:37;;;;;;;;;;;12.50;99.90;;;;;;4863805;29;19912;-78
2022/05/06 06:19:03;;;;;;;;;;;12.60;99.90;;;;;;4842613;29;20198;-78
2022/05/06 06:21:35;;;;;;;;;;;12.60;99.90;;;;;;4855524;29;20042;-78
2022/05/06 06:24:01;;;;;;;;;;;12.70;99.90;;;;;;4827828;29;19946;-77
2022/05/06 06:26:27;;;;;;;;;;;12.70;99.90;;;;;;4860746;29;19924;-78
2022/05/06 06:28:57;;;;;;;;;;;12.70;99.90;;;;;;4858681;29;19922;-77
2022/05/06 06:31:23;;;;;;;;;;;12.80;99.90;;;;;;4829220;29;20295;-76
2022/05/06 06:33:50;;;;;;;;;;;12.80;99.90;;;;;;4853568;29;20011;-78
2022/05/06 06:36:25;;;;;;;;;;;12.90;99.90;;;;;;4859805;29;20118;-77
2022/05/06 06:38:50;;;;;;;;;;;12.90;99.90;;;;;;4862514;29;19953;-79
2022/05/06 06:41:16;;;;;;;;;;;12.90;99.90;;;;;;4866781;29;19912;-76
2022/05/06 06:43:43;;;;;;;;;;;12.90;99.90;;;;;;4867723;29;19912;-78
2022/05/06 06:46:21;;;;;;;;;;;12.90;99.90;;;;;;4834745;29;19918;-77
2022/05/06 06:49:07;;;;;;;;;;;12.90;99.90;;;;;;4863508;29;19912;-76
2022/05/06 06:51:50;;;;;;;;;;;12.90;99.90;;;;;;4892113;29;19919;-77
2022/05/06 06:54:16;;;;;;;;;;;12.90;99.90;;;;;;4885273;29;19979;-77
2022/05/06 06:56:43;;;;;;;;;;;12.90;99.90;;;;;;4884853;29;19975;-76
2022/05/06 06:59:09;;;;;;;;;;;12.90;99.90;;;;;;4884783;29;19920;-77
2022/05/06 07:01:35;;;;;;;;;;;13.00;99.90;;;;;;4883425;29;20145;-77
2022/05/06 07:04:00;;;;;;;;;;;13.00;99.90;;;;;;4883073;29;19912;-78
2022/05/06 07:11:59;;;;;;;;;;;13.30;99.90;;;;;;4883349;29;19912;-77
2022/05/06 07:14:29;;;;;;;;;;;13.30;99.90;;;;;;4865620;29;19912;-77
2022/05/06 07:16:55;;;;;;;;;;;13.30;99.90;;;;;;4881644;29;19936;-76
2022/05/06 07:19:21;;;;;;;;;;;13.30;99.90;;;;;;4881785;29;19920;-77
2022/05/06 07:21:49;;;;;;;;;;;13.40;99.90;;;;;;4880936;29;20225;-78
2022/05/06 07:24:15;;;;;;;;;;;13.50;99.90;;;;;;4882488;29;19919;-79
2022/05/06 07:26:41;;;;;;;;;;;13.60;99.90;;;;;;4884398;29;19928;-77
2022/05/06 07:29:09;;;;;;;;;;;13.70;99.90;;;;;;4882925;29;19911;-77
2022/05/06 07:31:34;;;;;;;;;;;13.80;99.90;;;;;;4885322;29;19908;-77
2022/05/06 07:34:00;;;;;;;;;;;13.80;99.90;;;;;;4885648;29;19911;-77
2022/05/06 07:36:27;;;;;;;;;;;13.80;99.90;;;;;;4884163;29;19993;-77
2022/05/06 07:38:53;;;;;;;;;;;13.90;99.90;;;;;;4868809;29;19987;-77
2022/05/06 07:41:18;;;;;;;;;;;13.90;99.90;;;;;;4884755;29;19908;-77
2022/05/06 07:43:44;;;;;;;;;;;13.90;99.90;;;;;;4884810;29;20288;-78
2022/05/06 07:46:10;;;;;;;;;;;14.00;99.90;;;;;;4883149;29;19912;-77
2022/05/06 07:48:36;;;;;;;;;;;14.00;99.60;;;;;;4875739;29;19986;-79
2022/05/06 07:51:02;;;;;;;;;;;14.00;99.30;;;;;;4885837;29;20193;-77
2022/05/06 07:53:28;;;;;;;;;;;14.00;99.00;;;;;;4894178;29;20129;-78
2022/05/06 07:55:53;;;;;;;;;;;14.00;99.30;;;;;;4864972;29;19958;-77
2022/05/06 07:58:19;;;;;;;;;;;14.00;99.00;;;;;;4886987;29;19911;-81
2022/05/06 08:00:45;;;;;;;;;;;14.00;98.80;;;;;;4882285;29;19912;-77
2022/05/06 08:05:59;;;;;;;;;;;14.20;98.50;;;;;;4864545;29;19935;-78
2022/05/06 08:08:25;;;;;;;;;;;14.40;98.10;;;;;;4883758;29;19912;-77
2022/05/06 08:10:52;;;;;;;;;;;14.60;97.40;;;;;;4868112;29;20150;-78
2022/05/06 08:13:17;;;;;;;;;;;14.60;97.10;;;;;;4884809;29;20015;-78
2022/05/06 08:15:44;;;;;;;;;;;14.70;97.00;;;;;;4868659;29;19959;-77
2022/05/06 08:18:09;;;;;;;;;;;14.70;96.40;;;;;;4883612;29;19911;-78
2022/05/06 08:20:35;;;;;;;;;;;14.80;96.50;;;;;;4884496;29;19914;-77
2022/05/06 08:23:01;;;;;;;;;;;14.80;96.20;;;;;;4885662;29;19912;-78
2022/05/06 08:25:27;;;;;;;;;;;14.80;96.20;;;;;;4883076;29;19951;-77
2022/05/06 08:27:53;;;;;;;;;;;14.90;96.20;;;;;;4884407;29;20098;-78
2022/05/06 08:30:18;;;;;;;;;;;15.00;96.00;;;;;;4883397;29;19911;-78
2022/05/06 08:32:44;;;;;;;;;;;15.10;95.90;;;;;;4883245;29;20018;-78
2022/05/06 08:35:10;;;;;;;;;;;15.10;95.70;;;;;;4882707;29;19923;-79
2022/05/06 08:37:48;;;;;;;;;;;15.10;95.40;;;;;;4885593;29;19956;-79
2022/05/06 08:40:28;;;;;;;;;;;15.20;95.00;;;;;;4886141;29;19987;-79
2022/05/06 08:42:55;;;;;;;;;;;15.30;95.20;;;;;;4885803;29;20098;-78
2022/05/06 08:50:50;;;;;;;;;;;15.40;94.80;;;;;;4888382;29;19922;-76
2022/05/06 08:53:16;;;;;;;;;;;15.60;94.80;;;;;;4887915;29;19939;-77
2022/05/06 08:55:42;;;;;;;;;;;15.70;93.90;;;;;;4888558;29;19991;-77
2022/05/06 08:58:08;;;;;;;;;;;15.80;93.80;;;;;;4888250;29;19971;-77
2022/05/06 09:00:34;;;;;;;;;;;15.80;93.90;;;;;;4886551;29;19978;-76
2022/05/06 09:03:00;;;;;;;;;;;16.00;93.60;;;;;;4881330;29;19928;-77
2022/05/06 09:05:26;;;;;;;;;;;16.10;93.40;;;;;;4866687;29;19980;-78
2022/05/06 09:07:55;;;;;;;;;;;16.20;93.10;;;;;;4868050;29;20299;-77
2022/05/06 09:10:21;;;;;;;;;;;16.20;93.20;;;;;;4878911;29;20201;-77
2022/05/06 09:12:46;;;;;;;;;;;16.30;92.80;;;;;;4860931;29;19912;-78
2022/05/06 09:17:57;;;;;;;;;;;16.30;92.70;;;;;;4849228;29;19916;-77
2022/05/06 09:20:24;;;;;;;;;;;16.30;92.60;;;;;;4853366;29;20222;-79
2022/05/06 09:22:52;;;;;;;;;;;16.50;92.30;;;;;;4868276;29;19916;-78
2022/05/06 09:25:38;;;;;;;;;;;16.60;92.20;;;;;;4867353;29;20109;-78
2022/05/06 09:28:04;;;;;;;;;;;16.70;91.90;;;;;;4866505;29;19917;-79
2022/05/06 09:30:30;;;;;;;;;;;16.90;91.60;;;;;;4867196;29;19987;-78
2022/05/06 09:32:56;;;;;;;;;;;17.00;91.30;;;;;;4865768;29;19916;-78
2022/05/06 09:35:25;;;;;;;;;;;17.00;90.30;;;;;;4866441;29;19919;-78
2022/05/06 09:37:51;;;;;;;;;;;17.30;90.40;;;;;;4880934;29;19975;-78
2022/05/06 09:40:18;;;;;;;;;;;17.40;90.50;;;;;;4880080;29;19927;-78
2022/05/06 09:42:45;;;;;;;;;;;17.40;90.30;;;;;;4866073;29;19912;-78
2022/05/06 09:45:12;;;;;;;;;;;17.50;90.10;;;;;;4852661;29;20124;-78
2022/05/06 09:47:38;;;;;;;;;;;17.70;90.00;;;;;;4859419;29;19919;-78
2022/05/06 09:50:05;;;;;;;;;;;18.00;89.60;;;;;;4845522;29;19924;-79
2022/05/06 09:52:31;;;;;;;;;;;18.30;89.00;;;;;;4845138;29;19920;-79
2022/05/06 09:54:57;;;;;;;;;;;18.70;86.60;;;;;;4874303;29;19938;-79
2022/05/06 09:57:23;;;;;;;;;;;18.70;86.20;;;;;;4845495;29;20009;-78
2022/05/06 09:59:50;;;;;;;;;;;19.00;85.40;;;;;;4847343;29;19969;-78
2022/05/06 10:02:17;;;;;;;;;;;18.80;85.10;;;;;;4863272;29;20033;-78
2022/05/06 10:04:43;;;;;;;;;;;18.80;85.90;;;;;;4881980;29;19923;-78
2022/05/06 10:07:13;;;;;;;;;;;18.90;85.50;;;;;;4882083;29;19924;-77
2022/05/06 10:09:50;;;;;;;;;;;19.00;85.30;;;;;;4881855;29;19918;-78
2022/05/06 10:12:17;;;;;;;;;;;19.20;85.20;;;;;;4883327;29;19978;-78
2022/05/06 10:14:44;;;;;;;;;;;19.40;84.80;;;;;;4884956;29;19908;-78
2022/05/06 10:17:09;;;;;;;;;;;19.60;83.90;;;;;;4884061;29;20132;-78
2022/05/06 10:19:39;;;;;;;;;;;19.60;83.30;;;;;;4882598;29;19927;-78
2022/05/06 10:22:05;;;;;;;;;;;19.90;82.90;;;;;;4897112;29;19932;-78
2022/05/06 10:24:38;;;;;;;;;;;20.20;81.50;;;;;;4898274;29;19916;-78
2022/05/06 10:27:20;;;;;;;;;;;20.60;81.00;;;;;;4883502;29;19999;-78
2022/05/06 10:32:48;;;;;;;;;;;21.10;80.30;;;;;;4883433;29;20037;-76
2022/05/06 10:35:15;;;;;;;;;;;21.30;79.10;;;;;;4884536;29;19934;-79
2022/05/06 10:37:44;;;;;;;;;;;21.20;77.90;;;;;;4884807;29;20081;-78
2022/05/06 10:40:25;;;;;;;;;;;21.30;78.10;;;;;;4882206;29;19923;-78
2022/05/06 10:42:51;;;;;;;;;;;21.50;77.90;;;;;;4884444;29;19978;-76
2022/05/06 10:45:24;;;;;;;;;;;21.40;77.80;;;;;;4883723;29;19972;-78
2022/05/06 10:47:52;;;;;;;;;;;21.90;77.90;;;;;;4881668;29;19975;-77
2022/05/06 10:50:19;;;;;;;;;;;21.90;76.70;;;;;;4897636;29;20009;-78
2022/05/06 10:52:48;;;;;;;;;;;22.40;76.30;;;;;;4883300;29;19935;-76
2022/05/06 10:55:15;;;;;;;;;;;22.50;74.80;;;;;;4869595;29;19914;-78
2022/05/06 10:57:59;;;;;;;;;;;22.70;74.50;;;;;;4886123;29;19975;-76
2022/05/06 11:00:27;;;;;;;;;;;22.80;74.50;;;;;;4883236;29;19920;-79
2022/05/06 11:02:52;;;;;;;;;;;22.90;73.70;;;;;;4884311;29;19978;-79
2022/05/06 11:05:20;;;;;;;;;;;23.00;72.30;;;;;;4899996;29;19919;-77
2022/05/06 11:07:47;;;;;;;;;;;23.10;71.40;;;;;;4888024;29;19911;-77
2022/05/06 11:10:14;;;;;;;;;;;23.10;71.30;;;;;;4884648;29;19927;-77
2022/05/06 11:12:43;;;;;;;;;;;23.20;71.70;;;;;;4871502;29;19982;-76
2022/05/06 11:15:16;;;;;;;;;;;23.50;71.30;;;;;;4885829;29;20197;-76
2022/05/06 11:17:42;;;;;;;;;;;23.70;71.10;;;;;;4886039;29;19923;-76
2022/05/06 11:20:17;;;;;;;;;;;23.90;69.50;;;;;;4886251;29;20026;-77
2022/05/06 11:22:52;;;;;;;;;;;24.40;68.80;;;;;;4882968;29;20006;-78
2022/05/06 11:25:18;;;;;;;;;;;24.40;65.60;;;;;;4885529;29;19916;-77
2022/05/06 11:27:45;;;;;;;;;;;24.60;65.40;;;;;;4867278;29;20290;-78
2022/05/06 11:30:16;;;;;;;;;;;24.90;64.90;;;;;;4872106;29;19987;-77
2022/05/06 11:32:45;;;;;;;;;;;25.00;64.00;;;;;;4883193;29;20090;-78
2022/05/06 11:35:14;;;;;;;;;;;25.30;64.30;;;;;;4885946;29;19999;-78
2022/05/06 11:37:41;;;;;;;;;;;25.80;64.40;;;;;;4870145;29;19915;-78
2022/05/06 11:40:32;;;;;;;;;;;26.00;63.10;;;;;;4885804;29;20351;-80
2022/05/06 11:42:59;;;;;;;;;;;26.10;62.70;;;;;;4888211;29;19919;-77
2022/05/06 11:48:09;;;;;;;;;;;25.40;63.80;;;;;;4879573;29;20007;-77
2022/05/06 11:50:36;;;;;;;;;;;24.70;64.50;;;;;;4869182;29;19915;-77
2022/05/06 11:53:04;;;;;;;;;;;24.30;65.40;;;;;;4886761;29;20028;-77
2022/05/06 11:55:30;;;;;;;;;;;24.30;65.80;;;;;;4884965;29;19951;-78
2022/05/06 11:57:56;;;;;;;;;;;24.10;66.30;;;;;;4888021;29;20248;-77
2022/05/06 12:00:22;;;;;;;;;;;23.80;65.70;;;;;;4886718;29;19938;-78
2022/05/06 12:02:49;;;;;;;;;;;23.50;66.60;;;;;;4895223;29;19920;-77
2022/05/06 12:05:14;;;;;;;;;;;23.20;68.30;;;;;;4864988;29;19912;-78
2022/05/06 12:07:41;;;;;;;;;;;23.00;67.60;;;;;;4854455;29;19912;-77
2022/05/06 12:10:09;;;;;;;;;;;23.10;67.10;;;;;;4858688;29;19921;-79
2022/05/06 12:12:51;;;;;;;;;;;23.20;67.10;;;;;;4858234;29;19929;-78
2022/05/06 12:15:17;;;;;;;;;;;23.50;67.20;;;;;;4863188;29;19912;-79
2022/05/06 12:17:43;;;;;;;;;;;23.60;65.60;;;;;;4893592;29;19924;-76
2022/05/06 12:20:29;;;;;;;;;;;23.30;65.00;;;;;;4866876;29;20011;-78
2022/05/06 12:22:58;;;;;;;;;;;22.90;65.80;;;;;;4896753;29;19937;-77
2022/05/06 12:25:24;;;;;;;;;;;22.60;66.40;;;;;;4866015;29;19912;-78
2022/05/06 12:28:10;;;;;;;;;;;22.60;67.60;;;;;;4866353;29;19912;-78
2022/05/06 12:30:37;;;;;;;;;;;22.70;67.00;;;;;;4864892;29;19912;-77
2022/05/06 12:33:06;;;;;;;;;;;22.70;66.70;;;;;;4866122;29;19912;-78
2022/05/06 12:35:52;;;;;;;;;;;22.50;67.40;;;;;;4864412;29;19946;-77
2022/05/06 12:38:18;;;;;;;;;;;22.70;67.20;;;;;;4862472;29;20185;-77
2022/05/06 12:40:44;;;;;;;;;;;22.80;67.80;;;;;;4891736;29;20062;-78
2022/05/06 12:43:10;;;;;;;;;;;22.90;66.80;;;;;;4880933;29;19920;-80
2022/05/06 12:45:37;;;;;;;;;;;22.70;66.40;;;;;;4863124;29;19924;-80
2022/05/06 12:50:47;;;;;;;;;;;22.60;68.00;;;;;;4863636;29;19912;-80
2022/05/06 12:53:13;;;;;;;;;;;22.60;66.90;;;;;;4864769;29;19916;-79
2022/05/06 12:55:40;;;;;;;;;;;22.50;66.70;;;;;;4860682;29;19991;-79
2022/05/06 12:58:06;;;;;;;;;;;22.50;67.30;;;;;;4862822;29;19912;-79
2022/05/06 13:00:32;;;;;;;;;;;22.70;66.70;;;;;;4863977;29;20033;-78
2022/05/06 13:03:00;;;;;;;;;;;23.10;66.50;;;;;;4851481;29;20608;-79
2022/05/06 13:05:31;;;;;;;;;;;23.60;65.20;;;;;;4860108;29;19911;-78
2022/05/06 13:07:58;;;;;;;;;;;23.70;64.90;;;;;;4844816;29;19915;-79
2022/05/06 13:10:23;;;;;;;;;;;23.80;65.90;;;;;;4853838;29;19912;-76
2022/05/06 13:12:50;;;;;;;;;;;24.00;65.70;;;;;;4864867;29;19916;-77
2022/05/06 13:15:17;;;;;;;;;;;24.40;65.30;;;;;;4852645;29;20139;-77
2022/05/06 13:17:44;;;;;;;;;;;24.70;64.30;;;;;;4822845;29;20197;-78
2022/05/06 13:20:10;;;;;;;;;;;24.70;64.50;;;;;;4860792;29;20900;-78
2022/05/06 13:22:39;;;;;;;;;;;24.70;64.80;;;;;;4835945;29;20122;-77
2022/05/06 13:25:05;;;;;;;;;;;24.70;64.70;;;;;;4865285;29;19912;-78
2022/05/06 13:27:30;;;;;;;;;;;24.70;64.60;;;;;;4879153;29;19968;-78
2022/05/06 13:29:58;;;;;;;;;;;24.20;65.60;;;;;;4860782;29;19936;-79
2022/05/06 13:32:24;;;;;;;;;;;23.90;65.90;;;;;;4849802;29;20093;-80
2022/05/06 13:34:50;;;;;;;;;;;23.60;66.80;;;;;;4848653;29;19916;-77
2022/05/06 13:37:15;;;;;;;;;;;23.30;66.80;;;;;;4845745;29;19952;-79
2022/05/06 13:39:41;;;;;;;;;;;23.30;67.10;;;;;;4879028;29;19939;-78
2022/05/06 13:42:07;;;;;;;;;;;23.10;67.10;;;;;;4869852;29;19979;-80
2022/05/06 13:44:33;;;;;;;;;;;23.20;67.60;;;;;;4882884;29;19983;-78
2022/05/06 13:47:09;;;;;;;;;;;23.50;67.50;;;;;;4852209;29;20206;-78
2022/05/06 13:49:37;;;;;;;;;;;23.50;67.40;;;;;;4874211;29;19971;-77
2022/05/06 13:52:03;;;;;;;;;;;23.40;66.60;;;;;;4869636;29;19911;-78
2022/05/06 13:54:29;;;;;;;;;;;23.30;66.90;;;;;;4841585;29;19986;-77
2022/05/06 13:59:39;;;;;;;;;;;23.50;68.60;;;;;;4853232;29;19930;-79
2022/05/06 14:02:06;;;;;;;;;;;23.70;67.60;;;;;;4857721;29;20190;-78
2022/05/06 14:04:35;;;;;;;;;;;23.60;66.60;;;;;;4866623;29;19908;-78
2022/05/06 14:07:01;;;;;;;;;;;23.70;66.80;;;;;;4857027;29;19992;-78
2022/05/06 14:09:27;;;;;;;;;;;23.50;66.10;;;;;;4843240;29;19916;-78
2022/05/06 14:11:53;;;;;;;;;;;23.20;66.10;;;;;;4873568;29;19953;-79
2022/05/06 14:14:20;;;;;;;;;;;22.90;66.70;;;;;;4859611;29;20208;-78
2022/05/06 14:16:46;;;;;;;;;;;22.80;66.90;;;;;;4873550;29;19912;-78
2022/05/06 14:19:11;;;;;;;;;;;22.70;67.50;;;;;;4861522;29;20133;-79
2022/05/06 14:21:37;;;;;;;;;;;22.80;67.90;;;;;;4832011;29;19925;-78
2022/05/06 14:24:05;;;;;;;;;;;22.70;68.50;;;;;;4816423;29;19918;-78
2022/05/06 14:26:32;;;;;;;;;;;22.70;68.40;;;;;;4877197;29;19982;-78
2022/05/06 14:28:58;;;;;;;;;;;22.70;67.30;;;;;;4842933;29;19911;-78
2022/05/06 14:31:24;;;;;;;;;;;22.70;66.60;;;;;;4861139;29;20209;-79
2022/05/06 14:33:50;;;;;;;;;;;22.70;66.40;;;;;;4860716;29;19919;-76
2022/05/06 14:36:19;;;;;;;;;;;22.60;67.20;;;;;;4886876;29;19925;-77
2022/05/06 14:38:48;;;;;;;;;;;22.60;66.60;;;;;;4871485;29;19916;-80
2022/05/06 14:41:14;;;;;;;;;;;22.50;66.70;;;;;;4852809;29;20755;-78
2022/05/06 14:43:40;;;;;;;;;;;22.50;67.70;;;;;;4796983;29;19913;-79
2022/05/06 14:46:08;;;;;;;;;;;22.40;67.20;;;;;;4845499;29;19913;-78
2022/05/06 14:48:34;;;;;;;;;;;22.30;67.40;;;;;;4847333;29;19998;-79
2022/05/06 14:51:00;;;;;;;;;;;22.40;67.90;;;;;;4858798;29;19995;-80
2022/05/06 14:53:25;;;;;;;;;;;22.40;67.50;;;;;;4847277;29;19924;-76
2022/05/06 14:55:51;;;;;;;;;;;22.30;67.60;;;;;;4860613;29;19913;-79
2022/05/06 14:58:17;;;;;;;;;;;22.20;67.80;;;;;;4846822;29;19919;-79
2022/05/06 15:00:42;;;;;;;;;;;22.20;68.20;;;;;;4846579;29;19924;-79
2022/05/06 15:03:08;;;;;;;;;;;22.20;68.40;;;;;;4857088;29;19930;-78
2022/05/06 15:05:34;;;;;;;;;;;22.10;68.50;;;;;;4848788;29;19988;-78
2022/05/06 15:07:59;;;;;;;;;;;22.20;68.00;;;;;;4877835;29;19912;-79
2022/05/06 15:10:25;;;;;;;;;;;22.20;68.30;;;;;;4879419;29;19928;-80
2022/05/06 15:12:52;;;;;;;;;;;22.20;68.90;;;;;;4870731;29;19919;-80
2022/05/06 15:15:28;;;;;;;;;;;22.00;68.70;;;;;;4818304;29;19979;-79
2022/05/06 15:17:54;;;;;;;;;;;21.90;68.70;;;;;;4862381;29;19912;-79
2022/05/06 15:20:25;;;;;;;;;;;21.80;69.20;;;;;;4881699;29;19938;-78
2022/05/06 15:22:51;;;;;;;;;;;21.70;69.80;;;;;;4856261;29;19918;-78
2022/05/06 15:25:18;;;;;;;;;;;21.70;70.60;;;;;;4880936;29;19923;-79
2022/05/06 15:27:44;;;;;;;;;;;21.70;70.30;;;;;;4848497;29;19924;-79
2022/05/06 15:30:10;;;;;;;;;;;21.50;70.60;;;;;;4849156;29;19919;-78
2022/05/06 15:32:35;;;;;;;;;;;21.50;70.70;;;;;;4867223;29;20242;-79
2022/05/06 15:35:08;;;;;;;;;;;21.40;70.50;;;;;;4869271;29;19987;-78
2022/05/06 15:37:34;;;;;;;;;;;21.30;70.80;;;;;;4878600;29;19927;-79
2022/05/06 15:40:00;;;;;;;;;;;21.20;71.90;;;;;;4884491;29;20181;-79
2022/05/06 15:42:27;;;;;;;;;;;21.20;71.30;;;;;;4876730;29;20205;-78
2022/05/06 15:44:56;;;;;;;;;;;21.20;71.20;;;;;;4882599;29;19938;-79
2022/05/06 15:47:22;;;;;;;;;;;21.10;72.00;;;;;;4869700;29;19977;-79
2022/05/06 15:49:48;;;;;;;;;;;21.20;71.60;;;;;;4885772;29;20150;-79
2022/05/06 15:52:16;;;;;;;;;;;21.10;71.90;;;;;;4873389;29;20206;-79
2022/05/06 15:54:41;;;;;;;;;;;21.10;71.50;;;;;;4886363;29;19919;-79
2022/05/06 15:57:07;;;;;;;;;;;21.00;71.00;;;;;;4877612;29;19974;-79
2022/05/06 15:59:39;;;;;;;;;;;20.90;70.90;;;;;;4887037;29;19951;-79
2022/05/06 16:02:07;;;;;;;;;;;20.90;70.50;;;;;;4879392;29;19922;-79
2022/05/06 16:04:33;;;;;;;;;;;20.90;70.90;;;;;;4891393;29;19916;-79
2022/05/06 16:06:58;;;;;;;;;;;20.90;71.20;;;;;;4869924;29;20169;-79
2022/05/06 16:09:26;;;;;;;;;;;20.80;71.50;;;;;;4868955;29;19983;-78
2022/05/06 16:11:58;;;;;;;;;;;20.80;70.90;;;;;;4882378;29;19931;-79
2022/05/06 16:17:09;;;;;;;;;;;20.90;71.90;;;;;;4867170;29;19976;-79
2022/05/06 16:19:34;;;;;;;;;;;20.80;71.40;;;;;;4876651;29;20149;-78
2022/05/06 16:22:00;;;;;;;;;;;20.80;71.30;;;;;;4873704;29;19918;-80
2022/05/06 16:24:28;;;;;;;;;;;20.80;72.00;;;;;;4871484;29;19919;-79
2022/05/06 16:26:56;;;;;;;;;;;20.70;71.80;;;;;;4871149;29;20205;-80
2022/05/06 16:29:22;;;;;;;;;;;20.70;72.50;;;;;;4864658;29;19964;-79
2022/05/06 16:38:33;;;;;;;;;;;20.40;72.10;;;;;;4782815;29;19914;-79
2022/05/06 16:41:00;;;;;;;;;;;20.50;72.90;;;;;;4808180;29;19913;-80
2022/05/06 16:43:51;;;;;;;;;;;20.40;72.60;;;;;;4803148;29;20219;-80
2022/05/06 16:46:17;;;;;;;;;;;20.40;72.90;;;;;;4793246;29;20011;-80
2022/05/06 16:48:43;;;;;;;;;;;20.30;73.20;;;;;;4805130;29;19940;-83
2022/05/06 16:54:16;;;;;;;;;;;20.10;73.70;;;;;;4809010;29;20052;-80
2022/05/06 16:56:47;;;;;;;;;;;20.10;75.00;;;;;;4775769;29;19984;-79
2022/05/06 16:59:20;;;;;;;;;;;20.10;74.10;;;;;;4788307;29;19921;-80
2022/05/06 17:01:46;;;;;;;;;;;19.90;73.80;;;;;;4811000;29;20238;-79
2022/05/06 17:04:56;;;;;;;;;;;19.80;74.00;;;;;;4811960;29;19916;-79
2022/05/06 17:08:24;;;;;;;;;;;;;;;;;;;;;
2022/05/06 17:11:13;;;;;;;;;;;19.90;74.10;;;;;;4800819;29;19944;-79
2022/05/06 17:13:39;;;;;;;;;;;19.80;74.10;;;;;;4821436;29;19916;-80
2022/05/06 17:16:15;;;;;;;;;;;19.80;74.10;;;;;;4869764;29;20045;-80
2022/05/06 17:18:52;;;;;;;;;;;19.80;74.40;;;;;;4833707;29;20098;-79
2022/05/06 17:21:29;;;;;;;;;;;19.70;74.10;;;;;;4867509;29;19965;-79
2022/05/06 17:23:55;;;;;;;;;;;19.70;74.50;;;;;;4880459;29;20142;-79
2022/05/06 17:26:27;;;;;;;;;;;19.60;74.60;;;;;;4856985;29;20106;-79
2022/05/06 17:28:56;;;;;;;;;;;19.60;75.00;;;;;;4860568;29;19982;-79
2022/05/06 17:31:32;;;;;;;;;;;19.50;75.50;;;;;;4837515;29;19979;-78
2022/05/06 17:34:05;;;;;;;;;;;19.60;75.50;;;;;;4791904;29;20218;-78
2022/05/06 17:36:47;;;;;;;;;;;19.70;75.40;;;;;;4855064;29;19912;-80
2022/05/06 17:42:30;;;;;;;;;;;20.00;74.00;;;;;;4816967;29;19913;-80
2022/05/06 17:44:55;;;;;;;;;;;20.10;74.50;;;;;;4782211;29;20218;-80
2022/05/06 17:47:26;;;;;;;;;;;20.00;75.10;;;;;;4813300;29;19913;-80
2022/05/06 17:49:52;;;;;;;;;;;20.00;74.30;;;;;;4757016;29;19940;-81
2022/05/06 17:52:20;;;;;;;;;;;19.90;74.60;;;;;;4795316;29;20235;-80
2022/05/06 17:54:53;;;;;;;;;;;19.70;74.70;;;;;;4789974;29;19931;-80
2022/05/06 17:57:19;;;;;;;;;;;19.60;75.50;;;;;;4815594;29;19920;-79
2022/05/06 18:02:30;;;;;;;;;;;19.40;76.30;;;;;;4798973;29;19917;-80
2022/05/06 18:04:56;;;;;;;;;;;19.30;76.10;;;;;;4809419;29;19928;-79
2022/05/06 18:10:52;;;;;;;;;;;19.10;76.90;;;;;;4760850;29;19920;-79
2022/05/06 18:13:19;;;;;;;;;;;19.00;77.60;;;;;;4812048;29;19937;-79
2022/05/06 18:15:54;;;;;;;;;;;18.90;77.40;;;;;;4795039;29;19913;-80
2022/05/06 18:18:20;;;;;;;;;;;18.80;77.60;;;;;;4794361;29;19943;-79
2022/05/06 18:20:50;;;;;;;;;;;18.80;77.30;;;;;;4835853;29;19920;-79
2022/05/06 18:23:15;;;;;;;;;;;18.60;77.20;;;;;;4819623;29;19943;-82
2022/05/06 18:29:04;;;;;;;;;;;18.40;78.00;;;;;;4838138;29;20070;-79
2022/05/06 18:34:31;;;;;;;;;;;18.10;79.40;;;;;;4846721;29;20028;-80
2022/05/06 18:37:00;;;;;;;;;;;18.00;79.10;;;;;;4829217;29;20040;-79
2022/05/06 18:39:26;;;;;;;;;;;17.90;79.20;;;;;;4845413;29;19999;-79
2022/05/06 18:41:52;;;;;;;;;;;17.70;79.60;;;;;;4829495;29;19993;-78
2022/05/06 18:44:18;;;;;;;;;;;17.60;80.20;;;;;;4837622;29;20218;-78
2022/05/06 18:46:43;;;;;;;;;;;17.60;80.50;;;;;;4835890;29;19912;-80
2022/05/06 18:49:12;;;;;;;;;;;17.50;81.00;;;;;;4862437;29;19912;-80
2022/05/06 18:51:38;;;;;;;;;;;17.40;81.10;;;;;;4842572;29;19920;-79
2022/05/06 18:54:04;;;;;;;;;;;17.30;81.40;;;;;;4836955;29;19979;-82
2022/05/06 18:56:29;;;;;;;;;;;17.10;82.10;;;;;;4843440;29;19919;-79
2022/05/06 18:58:57;;;;;;;;;;;17.00;82.40;;;;;;4848124;29;20274;-79
2022/05/06 19:01:22;;;;;;;;;;;16.90;82.90;;;;;;4851483;29;20286;-80
2022/05/06 19:03:48;;;;;;;;;;;16.70;83.10;;;;;;4855568;29;19916;-79
2022/05/06 19:06:17;;;;;;;;;;;16.50;83.70;;;;;;4879505;29;19912;-84
2022/05/06 19:08:49;;;;;;;;;;;16.40;83.90;;;;;;4883378;29;20257;-81
2022/05/06 19:12:21;;;;;;;;;;;16.20;84.30;;;;;;4864843;29;19924;-80
2022/05/06 19:14:39;;;;;;;;;;;16.10;85.20;;;;;;4871338;29;20220;-81
2022/05/06 19:17:05;;;;;;;;;;;16.00;86.00;;;;;;4868010;29;19960;-81
2022/05/06 19:19:42;;;;;;;;;;;15.80;85.50;;;;;;4859641;29;19927;-80
2022/05/06 19:25:40;;;;;;;;;;;15.60;87.60;;;;;;4832935;29;20443;-79
2022/05/06 19:28:09;;;;;;;;;;;15.60;88.90;;;;;;4889113;29;19955;-79
2022/05/06 19:30:54;;;;;;;;;;;15.40;89.50;;;;;;4848222;29;19914;-80
2022/05/06 19:33:31;;;;;;;;;;;15.40;90.00;;;;;;4847871;29;19918;-79
2022/05/06 19:36:02;;;;;;;;;;;15.30;90.10;;;;;;4834439;29;19911;-79
2022/05/06 19:38:40;;;;;;;;;;;15.20;90.10;;;;;;4801720;29;19957;-79
2022/05/06 19:41:30;;;;;;;;;;;15.10;90.30;;;;;;4813952;29;19916;-80
2022/05/06 19:44:05;;;;;;;;;;;15.00;90.50;;;;;;4829033;29;19912;-81
2022/05/06 19:47:15;;;;;;;;;;;15.00;90.60;;;;;;4845899;29;20187;-80
2022/05/06 19:49:50;;;;;;;;;;;14.90;90.50;;;;;;4777993;29;19913;-81
2022/05/06 19:55:40;;;;;;;;;;;14.80;90.80;;;;;;4838285;29;20860;-79
2022/05/06 19:59:00;;;;;;;;;;;;;;;;;;;;;
2022/05/06 20:01:51;;;;;;;;;;;14.50;91.30;;;;;;4845367;29;19951;-79
2022/05/06 20:22:20;;;;;;;;;;;14.20;91.90;;;;;;4759355;30;19960;-78
2022/05/06 20:24:47;;;;;;;;;;;14.20;92.00;;;;;;4758250;30;19986;-79
2022/05/06 20:27:12;;;;;;;;;;;14.10;92.10;;;;;;4759773;30;19914;-78
2022/05/06 20:37:19;;;;;;;;;;;13.80;92.60;;;;;;4751680;29;19920;-79
2022/05/06 20:43:51;;;;;;;;;;;13.50;93.20;;;;;;4767100;30;19920;-79
2022/05/06 20:46:51;;;;;;;;;;;13.40;93.70;;;;;;4763099;30;19978;-79
2022/05/06 20:49:52;;;;;;;;;;;13.30;93.90;;;;;;4731339;30;19918;-78
2022/05/06 21:02:03;;;;;;;;;;;13.00;94.80;;;;;;4757707;30;19967;-80
2022/05/06 21:04:46;;;;;;;;;;;12.90;95.10;;;;;;4746420;30;19953;-80
2022/05/06 21:07:46;;;;;;;;;;;;;;;;;;;;;
2022/05/06 21:13:55;;;;;;;;;;;12.70;95.50;;;;;;4796554;29;19985;-80
2022/05/06 21:16:41;;;;;;;;;;;12.70;95.40;;;;;;4792712;29;19925;-80
2022/05/06 21:25:53;;;;;;;;;;;12.50;95.80;;;;;;4859382;29;20081;-79
2022/05/06 21:28:31;;;;;;;;;;;12.40;96.00;;;;;;4835735;29;19983;-79
2022/05/06 21:31:45;;;;;;;;;;;12.40;96.30;;;;;;4859129;29;19960;-79
2022/05/06 21:34:14;;;;;;;;;;;12.30;96.60;;;;;;4843687;29;20178;-79
2022/05/06 21:36:49;;;;;;;;;;;12.20;96.70;;;;;;4838764;29;20095;-79